Cicero, New York
Current Conditions -  °F | °C
As of 10:54 PM on Thursday 27 Nov 2014 (Local Time) from KSYR Reporting Station
Broken Clouds Broken Clouds  
Wind Chill: 19°   Ceiling: 3700
Heat Index: 26°   Visibility: 10mi
Dew Point: 24°   Wind: 6mph
Humidity: 92%   Direction: 260°W
Pressure: 30.07"   Gusts: NA
Location:  43.18°N, 76.12°W
Report Text: KSYR 280354Z 26005KT 10SM FEW029 BKN037 M03/M04 A3007 RMK AO2 SLP184 T10331044
Loading
Personal Weather Stations






























Interactive Weather Map New forecast layout! Learn more

10-Day Weather Forecast

Advertisements
Track Severe Weather on mobile